createdAt,value
2023-04-13T00:00:23.680Z,95497.94
2023-04-13T00:02:55.885Z,95506.03
2023-04-13T00:05:24.349Z,95501.50
2023-04-13T00:07:52.195Z,95499.53
2023-04-13T00:10:20.893Z,95509.91
2023-04-13T00:12:49.353Z,95508.94
2023-04-13T00:15:19.203Z,95525.88
2023-04-13T00:17:48.186Z,95519.09
2023-04-13T00:20:17.819Z,95522.44
2023-04-13T00:22:47.310Z,95534.13
2023-04-13T00:25:16.783Z,95528.16
2023-04-13T00:27:45.384Z,95520.19
2023-04-13T00:30:14.596Z,95518.16
2023-04-13T00:32:44.059Z,95509.69
2023-04-13T00:35:13.624Z,95506.78
2023-04-13T00:37:43.114Z,95512.31
2023-04-13T00:40:12.286Z,95504.69
2023-04-13T00:42:40.056Z,95498.47
2023-04-13T00:45:09.603Z,95496.00
2023-04-13T00:47:37.570Z,95506.78
2023-04-13T00:50:07.755Z,95498.47
2023-04-13T00:52:38.215Z,95498.25
2023-04-13T00:55:08.510Z,95501.91
2023-04-13T00:57:36.714Z,95508.03
2023-04-13T01:00:08.492Z,95508.13
2023-04-13T01:02:36.808Z,95502.53
2023-04-13T01:05:06.162Z,95504.91
2023-04-13T01:07:41.589Z,95508.78
2023-04-13T01:10:18.889Z,95516.38
2023-04-13T01:12:57.825Z,95517.25
2023-04-13T01:15:27.436Z,95525.00
2023-04-13T01:17:59.762Z,95520.38
2023-04-13T01:20:30.226Z,95515.25
2023-04-13T01:22:59.505Z,95517.16
2023-04-13T01:25:38.072Z,95504.97
2023-04-13T01:28:09.701Z,95504.25
2023-04-13T01:30:39.342Z,95501.28
2023-04-13T01:33:08.697Z,95507.34
2023-04-13T01:35:38.885Z,95504.97
2023-04-13T01:38:08.753Z,95500.09
2023-04-13T01:40:41.246Z,95495.38
2023-04-13T01:43:12.257Z,95495.94
2023-04-13T01:46:14.348Z,95504.06
2023-04-13T01:49:04.308Z,95505.25
2023-04-13T01:52:08.375Z,95494.66
2023-04-13T01:54:39.594Z,95499.75
2023-04-13T01:57:08.766Z,95492.97
2023-04-13T01:59:37.940Z,95494.75
2023-04-13T02:02:06.897Z,95491.31
2023-04-13T02:04:34.965Z,95478.78
2023-04-13T02:07:02.777Z,95495.00
2023-04-13T02:09:36.317Z,95485.59
2023-04-13T02:12:04.548Z,95483.81
2023-04-13T02:14:39.176Z,95474.25
2023-04-13T02:17:06.951Z,95470.19
2023-04-13T02:19:35.012Z,95478.91
2023-04-13T02:22:04.110Z,95467.94
2023-04-13T02:24:32.908Z,95483.66
2023-04-13T02:27:02.220Z,95488.34
2023-04-13T02:29:30.035Z,95485.34
2023-04-13T02:31:59.712Z,95491.31
2023-04-13T02:34:28.544Z,95483.34
2023-04-13T02:37:00.164Z,95490.59
2023-04-13T02:39:28.795Z,95485.72
2023-04-13T02:41:57.901Z,95489.66
2023-04-13T02:44:29.155Z,95481.91
2023-04-13T02:47:01.407Z,95480.22
2023-04-13T02:49:29.491Z,95479.75
2023-04-13T02:52:09.256Z,95487.63
2023-04-13T02:54:44.581Z,95484.91
2023-04-13T02:57:13.430Z,95487.88
2023-04-13T02:59:43.216Z,95491.94
2023-04-13T03:02:13.077Z,95495.16
2023-04-13T03:04:41.710Z,95502.66
2023-04-13T03:07:10.594Z,95497.06
2023-04-13T03:09:44.615Z,95494.44
2023-04-13T03:12:12.488Z,95499.78
2023-04-13T03:14:43.155Z,95497.16
2023-04-13T03:17:13.017Z,95499.44
2023-04-13T03:19:42.637Z,95502.91
2023-04-13T03:22:11.201Z,95505.53
2023-04-13T03:24:44.886Z,95515.63
2023-04-13T03:27:18.061Z,95511.81
2023-04-13T03:29:49.756Z,95518.72
2023-04-13T03:32:23.819Z,95514.31
2023-04-13T03:34:58.738Z,95511.47
2023-04-13T03:37:30.044Z,95503.81
2023-04-13T03:40:04.261Z,95506.69
2023-04-13T03:42:40.978Z,95509.31
2023-04-13T03:45:10.607Z,95522.16
2023-04-13T03:47:41.287Z,95523.22
2023-04-13T03:50:11.514Z,95525.75
2023-04-13T03:52:40.382Z,95528.47
2023-04-13T03:55:10.327Z,95533.97
2023-04-13T03:57:40.984Z,95539.94
2023-04-13T04:00:14.380Z,95547.91
2023-04-13T04:02:48.773Z,95544.31
2023-04-13T04:05:25.227Z,95547.66
2023-04-13T04:08:00.818Z,95551.97
2023-04-13T04:10:30.066Z,95551.47
2023-04-13T04:12:59.437Z,95558.63
2023-04-13T04:15:29.761Z,95552.22
2023-04-13T04:18:06.976Z,95546.13
2023-04-13T04:20:38.173Z,95555.56
2023-04-13T04:23:06.097Z,95553.75
2023-04-13T04:25:42.825Z,95559.81
2023-04-13T04:28:10.599Z,95556.16
2023-04-13T04:30:38.408Z,95558.66
2023-04-13T04:33:08.480Z,95564.25
2023-04-13T04:35:43.153Z,95560.09
2023-04-13T04:38:10.965Z,95556.16
2023-04-13T04:40:45.109Z,95560.34
2023-04-13T04:43:15.736Z,95561.75
2023-04-13T04:45:52.076Z,95558.19
2023-04-13T04:48:24.901Z,95566.78
2023-04-13T04:50:56.071Z,95565.19
2023-04-13T04:53:27.194Z,95575.59
2023-04-13T04:55:56.240Z,95572.13
2023-04-13T04:58:56.530Z,95579.03
2023-04-13T05:01:34.980Z,95580.09
2023-04-13T05:04:10.906Z,95576.31
2023-04-13T05:06:41.756Z,95586.69
2023-04-13T05:09:13.637Z,95581.31
2023-04-13T05:11:46.273Z,95580.38
2023-04-13T05:14:15.615Z,95584.88
2023-04-13T05:16:43.514Z,95581.53
2023-04-13T05:19:19.278Z,95588.81
2023-04-13T05:21:55.186Z,95581.66
2023-04-13T05:24:23.620Z,95587.25
2023-04-13T05:26:53.030Z,95598.22
2023-04-13T05:29:23.652Z,95598.47
2023-04-13T05:31:51.695Z,95593.22
2023-04-13T05:34:21.722Z,95600.47
2023-04-13T05:37:03.850Z,95600.63
2023-04-13T05:39:32.061Z,95599.66
2023-04-13T05:42:00.004Z,95603.00
2023-04-13T05:44:29.672Z,95611.34
2023-04-13T05:46:57.507Z,95595.50
2023-04-13T05:49:27.063Z,95597.28
2023-04-13T05:51:55.518Z,95597.75
2023-04-13T05:54:32.703Z,95598.69
2023-04-13T05:57:00.753Z,95595.03
2023-04-13T05:59:29.199Z,95602.16
2023-04-13T06:02:01.006Z,95592.75
2023-04-13T06:04:32.182Z,95608.72
2023-04-13T06:07:00.853Z,95600.97
2023-04-13T06:09:28.607Z,95598.22
2023-04-13T06:11:57.433Z,95600.97
2023-04-13T06:14:25.718Z,95595.03
2023-04-13T06:16:53.851Z,95587.25
2023-04-13T06:19:22.162Z,95583.47
2023-04-13T06:21:52.065Z,95584.03
2023-04-13T06:24:19.875Z,95593.56
2023-04-13T06:26:47.880Z,95602.66
2023-04-13T06:29:15.801Z,95606.09
2023-04-13T06:31:51.002Z,95603.94
2023-04-13T06:34:20.154Z,95606.97
2023-04-13T06:36:48.319Z,95605.88
2023-04-13T06:39:20.214Z,95605.88
2023-04-13T06:41:56.233Z,95605.75
2023-04-13T06:44:48.658Z,95611.25
2023-04-13T06:47:17.443Z,95616.50
2023-04-13T06:49:46.526Z,95617.66
2023-04-13T06:52:14.654Z,95618.16
2023-04-13T06:54:44.484Z,95620.19
2023-04-13T06:57:24.591Z,95624.47
2023-04-13T06:59:52.523Z,95623.00
2023-04-13T07:02:20.528Z,95624.69
2023-04-13T07:04:48.840Z,95624.94
2023-04-13T07:07:16.645Z,95624.59
2023-04-13T07:09:46.640Z,95624.09
2023-04-13T07:12:14.560Z,95627.31
2023-04-13T07:14:43.679Z,95621.22
2023-04-13T07:17:14.218Z,95628.72
2023-04-13T07:19:47.941Z,95623.84
2023-04-13T07:22:16.005Z,95624.56
2023-04-13T07:24:46.370Z,95628.41
2023-04-13T07:27:18.472Z,95630.53
2023-04-13T07:29:46.487Z,95632.41
2023-04-13T07:32:21.183Z,95626.91
2023-04-13T07:34:49.233Z,95631.78
2023-04-13T07:37:17.315Z,95628.69
2023-04-13T07:39:46.430Z,95623.47
2023-04-13T07:42:14.347Z,95621.91
2023-04-13T07:44:48.354Z,95626.78
2023-04-13T07:47:17.059Z,95626.75
2023-04-13T07:49:47.619Z,95623.41
2023-04-13T07:52:20.574Z,95627.84
2023-04-13T07:54:51.119Z,95630.69
2023-04-13T07:57:21.436Z,95630.53
2023-04-13T07:59:55.631Z,95630.03
2023-04-13T08:02:25.599Z,95634.53
2023-04-13T08:04:56.380Z,95630.25
2023-04-13T08:07:29.519Z,95626.91
2023-04-13T08:09:58.760Z,95633.78
2023-04-13T08:12:29.305Z,95632.63
2023-04-13T08:14:57.303Z,95640.00
2023-04-13T08:17:25.455Z,95631.22
2023-04-13T08:19:53.575Z,95637.84
2023-04-13T08:22:22.004Z,95639.03
2023-04-13T08:24:50.136Z,95642.59
2023-04-13T08:27:19.784Z,95644.69
2023-04-13T08:29:48.333Z,95637.97
2023-04-13T08:32:17.137Z,95650.34
2023-04-13T08:34:45.346Z,95655.13
2023-04-13T08:37:17.039Z,95651.94
2023-04-13T08:39:48.266Z,95658.06
2023-04-13T08:42:22.409Z,95648.00
2023-04-13T08:44:52.564Z,95654.25
2023-04-13T08:47:20.578Z,95650.09
2023-04-13T08:49:50.242Z,95657.91
2023-04-13T08:52:22.029Z,95648.88
2023-04-13T08:54:54.062Z,95649.59
2023-04-13T08:57:30.452Z,95640.34
2023-04-13T09:00:00.005Z,95647.84
2023-04-13T09:02:35.464Z,95647.59
2023-04-13T09:05:15.944Z,95652.28
2023-04-13T09:07:53.690Z,95646.91
2023-04-13T09:10:23.373Z,95643.94
2023-04-13T09:12:52.558Z,95651.38
2023-04-13T09:15:20.959Z,95650.25
2023-04-13T09:18:12.554Z,95653.56
2023-04-13T09:20:56.602Z,95648.38
2023-04-13T09:23:24.616Z,95648.09
2023-04-13T09:26:05.945Z,95650.53
2023-04-13T09:28:35.121Z,95633.75
2023-04-13T09:31:05.460Z,95636.25
2023-04-13T09:33:44.600Z,95632.53
2023-04-13T09:36:13.338Z,95635.56
2023-04-13T09:38:41.210Z,95640.53
2023-04-13T09:41:09.114Z,95641.56
2023-04-13T09:43:39.639Z,95638.81
2023-04-13T09:46:13.485Z,95641.63
2023-04-13T09:48:41.832Z,95646.91
2023-04-13T09:51:10.763Z,95638.59
2023-04-13T09:53:43.480Z,95636.25
2023-04-13T09:56:12.274Z,95639.19
2023-04-13T09:58:45.619Z,95631.94
2023-04-13T10:01:15.247Z,95630.72
2023-04-13T10:03:44.781Z,95633.63
2023-04-13T10:06:12.808Z,95630.31
2023-04-13T10:08:41.900Z,95627.13
2023-04-13T10:11:12.996Z,95626.84
2023-04-13T10:13:50.819Z,95628.25
2023-04-13T10:16:43.412Z,95630.47
2023-04-13T10:19:13.766Z,95619.63
2023-04-13T10:21:45.661Z,95619.22
2023-04-13T10:24:14.909Z,95615.88
2023-04-13T10:26:45.114Z,95620.34
2023-04-13T10:29:16.594Z,95613.69
2023-04-13T10:31:47.110Z,95613.94
2023-04-13T10:34:25.409Z,95607.84
2023-04-13T10:36:55.366Z,95616.16
2023-04-13T10:39:27.556Z,95618.78
2023-04-13T10:42:02.787Z,95613.94
2023-04-13T10:44:42.121Z,95615.72
2023-04-13T10:47:11.634Z,95611.97
2023-04-13T10:49:40.737Z,95604.34
2023-04-13T10:52:11.041Z,95610.88
2023-04-13T10:54:40.444Z,95604.47
2023-04-13T10:57:11.134Z,95615.59
2023-04-13T11:02:18.220Z,95602.53
2023-04-13T11:04:47.685Z,95594.75
2023-04-13T11:07:17.872Z,95612.00
2023-04-13T11:09:47.178Z,95622.53
2023-04-13T11:12:16.223Z,95625.75
2023-04-13T11:14:47.528Z,95635.03
2023-04-13T11:17:17.394Z,95635.03
2023-04-13T11:19:50.376Z,95629.59
2023-04-13T11:22:19.916Z,95639.78
2023-04-13T11:24:48.570Z,95641.84
2023-04-13T11:27:20.157Z,95634.19
2023-04-13T11:29:58.865Z,95649.81
2023-04-13T11:32:28.120Z,95644.81
2023-04-13T11:35:06.990Z,95639.09
2023-04-13T11:37:37.828Z,95643.16
2023-04-13T11:40:17.336Z,95631.81
2023-04-13T11:42:46.974Z,95630.75
2023-04-13T11:45:19.036Z,95624.66
2023-04-13T11:47:51.244Z,95622.91
2023-04-13T11:50:20.101Z,95617.94
2023-04-13T11:52:50.334Z,95611.16
2023-04-13T11:55:23.660Z,95607.16
2023-04-13T11:57:53.277Z,95598.38
2023-04-13T12:00:26.543Z,95601.31
2023-04-13T12:05:29.946Z,95597.84
2023-04-13T12:07:59.256Z,95594.22
2023-04-13T12:10:39.335Z,95591.75
2023-04-13T12:16:05.311Z,95593.69
2023-04-13T12:18:44.251Z,95586.72
2023-04-13T12:21:16.350Z,95600.06
2023-04-13T12:23:54.276Z,95596.56
2023-04-13T12:28:57.237Z,95591.34
2023-04-13T12:31:33.424Z,95592.44
2023-04-13T12:34:01.413Z,95600.19
2023-04-13T12:36:31.578Z,95586.81
2023-04-13T12:39:00.140Z,95589.59
2023-04-13T12:41:28.806Z,95582.97
2023-04-13T12:43:56.725Z,95577.25
2023-04-13T12:46:26.623Z,95589.25
2023-04-13T12:48:54.957Z,95571.31
2023-04-13T12:51:22.812Z,95577.16
2023-04-13T12:53:50.776Z,95575.91
2023-04-13T12:56:18.658Z,95574.59
2023-04-13T12:58:46.499Z,95578.84
2023-04-13T13:01:15.587Z,95578.34
2023-04-13T13:03:46.051Z,95582.41
2023-04-13T13:06:14.147Z,95584.16
2023-04-13T13:08:42.024Z,95586.22
2023-04-13T13:11:09.953Z,95590.09
2023-04-13T13:13:37.803Z,95586.63
2023-04-13T13:16:06.264Z,95588.19
2023-04-13T13:18:47.012Z,95586.94
2023-04-13T13:21:21.184Z,95584.31
2023-04-13T13:23:49.108Z,95583.44
2023-04-13T13:28:48.148Z,95583.94
2023-04-13T13:31:16.382Z,95594.06
2023-04-13T13:33:44.318Z,95584.84
2023-04-13T13:36:13.858Z,95581.34
2023-04-13T13:38:43.462Z,95574.38
2023-04-13T13:41:14.097Z,95585.25
2023-04-13T13:43:42.490Z,95580.53
2023-04-13T13:46:11.830Z,95586.53
2023-04-13T13:48:40.945Z,95584.16
2023-04-13T13:51:29.406Z,95593.47
2023-04-13T13:54:00.086Z,95600.66
2023-04-13T13:56:28.001Z,95605.22
2023-04-13T13:58:55.903Z,95610.13
2023-04-13T14:01:23.967Z,95605.28
2023-04-13T14:03:52.225Z,95606.78
2023-04-13T14:06:20.344Z,95615.75
2023-04-13T14:08:48.204Z,95613.53
2023-04-13T14:11:17.515Z,95611.03
2023-04-13T14:13:45.509Z,95610.72
2023-04-13T14:16:13.452Z,95605.84
2023-04-13T14:18:41.287Z,95606.34
2023-04-13T14:21:09.279Z,95607.03
2023-04-13T14:23:38.271Z,95609.16
2023-04-13T14:26:08.265Z,95607.13
2023-04-13T14:28:38.349Z,95610.50
2023-04-13T14:31:06.639Z,95617.84
2023-04-13T14:33:34.552Z,95618.09
2023-04-13T14:36:02.625Z,95618.69
2023-04-13T14:38:30.582Z,95619.38
2023-04-13T14:40:58.449Z,95613.66
2023-04-13T14:43:26.667Z,95613.63
2023-04-13T14:45:56.031Z,95610.59
2023-04-13T14:48:23.933Z,95608.25
2023-04-13T14:50:52.753Z,95606.84
2023-04-13T14:53:20.714Z,95610.59
2023-04-13T14:55:48.622Z,95619.66
2023-04-13T14:58:16.631Z,95620.88
2023-04-13T15:00:44.774Z,95624.78
2023-04-13T15:03:14.771Z,95621.78
2023-04-13T15:05:45.409Z,95633.06
2023-04-13T15:08:15.769Z,95629.72
2023-04-13T15:10:43.778Z,95634.44
2023-04-13T15:13:11.874Z,95637.94
2023-04-13T15:15:40.454Z,95631.13
2023-04-13T15:18:09.318Z,95642.13
2023-04-13T15:20:38.755Z,95641.41
2023-04-13T15:23:06.838Z,95642.28
2023-04-13T15:25:34.697Z,95646.44
2023-04-13T15:28:03.463Z,95638.81
2023-04-13T15:30:32.660Z,95642.25
2023-04-13T15:33:02.441Z,95642.78
2023-04-13T15:35:31.610Z,95644.19
2023-04-13T15:38:03.437Z,95643.66
2023-04-13T15:40:33.740Z,95641.97
2023-04-13T15:43:01.765Z,95636.72
2023-04-13T15:45:29.762Z,95638.94
2023-04-13T15:47:57.936Z,95643.22
2023-04-13T15:50:26.450Z,95641.84
2023-04-13T15:52:54.450Z,95643.91
2023-04-13T15:55:24.402Z,95643.50
2023-04-13T15:57:53.852Z,95636.97
2023-04-13T16:00:22.160Z,95642.56
2023-04-13T16:02:50.381Z,95641.84
2023-04-13T16:05:18.721Z,95640.28
2023-04-13T16:07:47.320Z,95658.06
2023-04-13T16:10:20.403Z,95662.66
2023-04-13T16:12:50.151Z,95671.28
2023-04-13T16:15:19.289Z,95675.16
2023-04-13T16:17:48.222Z,95674.19
2023-04-13T16:20:20.304Z,95682.25
2023-04-13T16:22:51.801Z,95683.78
2023-04-13T16:25:20.484Z,95682.53
2023-04-13T16:27:50.024Z,95696.81
2023-04-13T16:30:20.919Z,95692.22
2023-04-13T16:32:50.129Z,95695.31
2023-04-13T16:35:18.306Z,95695.72
2023-04-13T16:37:46.145Z,95698.91
2023-04-13T16:40:15.443Z,95708.50
2023-04-13T16:42:44.018Z,95700.31
2023-04-13T16:45:14.899Z,95695.44
2023-04-13T16:47:43.366Z,95693.63
2023-04-13T16:50:12.424Z,95696.41
2023-04-13T16:52:40.733Z,95698.09
2023-04-13T16:55:13.987Z,95706.94
2023-04-13T16:57:43.079Z,95706.94
2023-04-13T17:00:14.952Z,95702.25
2023-04-13T17:02:44.308Z,95703.06
2023-04-13T17:05:13.576Z,95713.06
2023-04-13T17:07:43.089Z,95701.13
2023-04-13T17:10:12.620Z,95703.19
2023-04-13T17:12:41.208Z,95702.66
2023-04-13T17:15:10.558Z,95699.31
2023-04-13T17:17:39.866Z,95703.91
2023-04-13T17:20:09.487Z,95706.25
2023-04-13T17:22:37.925Z,95716.09
2023-04-13T17:25:06.925Z,95726.09
2023-04-13T17:27:34.919Z,95722.75
2023-04-13T17:30:02.884Z,95731.47
2023-04-13T17:32:31.119Z,95723.56
2023-04-13T17:35:00.421Z,95727.19
2023-04-13T17:37:29.433Z,95734.50
2023-04-13T17:39:57.441Z,95738.13
2023-04-13T17:42:28.368Z,95749.56
2023-04-13T17:44:56.358Z,95752.47
2023-04-13T17:47:25.584Z,95753.88
2023-04-13T17:49:53.892Z,95761.72
2023-04-13T17:52:23.315Z,95761.91
2023-04-13T17:54:51.488Z,95782.25
2023-04-13T17:57:19.537Z,95778.22
2023-04-13T17:59:47.776Z,95789.44
2023-04-13T18:02:16.267Z,95784.47
2023-04-13T18:04:44.329Z,95777.03
2023-04-13T18:07:12.538Z,95766.06
2023-04-13T18:09:41.868Z,95774.00
2023-04-13T18:12:09.896Z,95767.63
2023-04-13T18:14:37.980Z,95765.56
2023-04-13T18:17:06.146Z,95761.69
2023-04-13T18:19:34.698Z,95750.13
2023-04-13T18:22:02.790Z,95760.75
2023-04-13T18:24:30.837Z,95758.75
2023-04-13T18:27:00.516Z,95762.09
2023-04-13T18:29:28.506Z,95764.97
2023-04-13T18:31:56.682Z,95766.75
2023-04-13T18:34:25.001Z,95758.75
2023-04-13T18:36:54.457Z,95762.44
2023-04-13T18:39:22.981Z,95772.94
2023-04-13T18:41:51.099Z,95774.03
2023-04-13T18:44:21.242Z,95779.94
2023-04-13T18:46:51.392Z,95784.50
2023-04-13T18:49:20.013Z,95783.56
2023-04-13T18:51:48.048Z,95778.06
2023-04-13T18:54:16.588Z,95779.38
2023-04-13T18:56:44.550Z,95778.16
2023-04-13T18:59:12.591Z,95769.31
2023-04-13T19:01:42.384Z,95777.66
2023-04-13T19:04:10.574Z,95776.56
2023-04-13T19:06:38.835Z,95776.94
2023-04-13T19:09:07.062Z,95778.50
2023-04-13T19:11:47.902Z,95774.31
2023-04-13T19:14:16.272Z,95780.22
2023-04-13T19:16:47.987Z,95789.03
2023-04-13T19:19:16.085Z,95782.13
2023-04-13T19:21:43.960Z,95788.22
2023-04-13T19:24:13.294Z,95785.00
2023-04-13T19:26:41.589Z,95788.13
2023-04-13T19:29:12.661Z,95782.28
2023-04-13T19:31:43.733Z,95786.69
2023-04-13T19:34:13.574Z,95793.16
2023-04-13T19:36:42.432Z,95792.31
2023-04-13T19:39:10.914Z,95788.38
2023-04-13T19:41:40.856Z,95793.19
2023-04-13T19:44:09.349Z,95795.09
2023-04-13T19:46:37.299Z,95798.78
2023-04-13T19:49:05.168Z,95802.97
2023-04-13T19:51:34.632Z,95805.50
2023-04-13T19:54:05.113Z,95808.22
2023-04-13T19:56:34.456Z,95806.56
2023-04-13T19:59:04.542Z,95810.38
2023-04-13T20:01:33.580Z,95802.97
2023-04-13T20:04:02.368Z,95806.69
2023-04-13T20:06:31.791Z,95806.56
2023-04-13T20:09:10.286Z,95803.94
2023-04-13T20:11:38.786Z,95813.63
2023-04-13T20:14:06.605Z,95806.78
2023-04-13T20:16:35.432Z,95811.72
2023-04-13T20:19:03.374Z,95817.19
2023-04-13T20:21:32.994Z,95815.16
2023-04-13T20:24:01.140Z,95809.34
2023-04-13T20:26:31.296Z,95807.53
2023-04-13T20:29:00.656Z,95812.41
2023-04-13T20:31:30.933Z,95818.84
2023-04-13T20:33:59.954Z,95821.59
2023-04-13T20:36:28.136Z,95827.31
2023-04-13T20:39:00.106Z,95833.41
2023-04-13T20:41:29.853Z,95838.06
2023-04-13T20:43:59.766Z,95841.88
2023-04-13T20:46:34.676Z,95840.91
2023-04-13T20:49:04.381Z,95846.88
2023-04-13T20:51:33.013Z,95842.72
2023-04-13T20:54:02.781Z,95835.06
2023-04-13T20:56:31.564Z,95837.84
2023-04-13T20:59:01.048Z,95832.09
2023-04-13T21:01:30.303Z,95830.19
2023-04-13T21:03:58.487Z,95833.75
2023-04-13T21:06:29.042Z,95831.97
2023-04-13T21:08:58.801Z,95829.94
2023-04-13T21:11:26.709Z,95822.19
2023-04-13T21:13:54.575Z,95823.00
2023-04-13T21:16:25.694Z,95822.09
2023-04-13T21:18:53.757Z,95823.97
2023-04-13T21:21:23.385Z,95822.31
2023-04-13T21:23:51.667Z,95821.47
2023-04-13T21:26:20.153Z,95816.34
2023-04-13T21:28:48.163Z,95813.47
2023-04-13T21:31:16.697Z,95811.94
2023-04-13T21:33:46.498Z,95812.03
2023-04-13T21:38:45.479Z,95813.94
2023-04-13T21:41:16.608Z,95814.91
2023-04-13T21:43:44.656Z,95823.84
2023-04-13T21:46:14.289Z,95824.94
2023-04-13T21:48:42.871Z,95826.81
2023-04-13T21:51:12.212Z,95829.44
2023-04-13T21:53:40.196Z,95825.50
2023-04-13T21:56:08.716Z,95821.81
2023-04-13T21:58:40.804Z,95823.94
2023-04-13T22:01:11.498Z,95812.50
2023-04-13T22:03:40.756Z,95818.56
2023-04-13T22:06:10.935Z,95828.25
2023-04-13T22:08:40.208Z,95809.25
2023-04-13T22:11:08.450Z,95809.16
2023-04-13T22:13:36.466Z,95806.75
2023-04-13T22:16:04.463Z,95800.66
2023-04-13T22:18:32.319Z,95807.13
2023-04-13T22:21:00.899Z,95805.78
2023-04-13T22:23:29.184Z,95801.56
2023-04-13T22:26:01.212Z,95810.25
2023-04-13T22:28:29.219Z,95817.31
2023-04-13T22:30:57.523Z,95824.25
2023-04-13T22:33:25.425Z,95823.38
2023-04-13T22:35:53.290Z,95823.63
2023-04-13T22:38:21.309Z,95835.81
2023-04-13T22:40:49.238Z,95835.66
2023-04-13T22:43:18.508Z,95843.06
2023-04-13T22:45:46.512Z,95835.06
2023-04-13T22:48:14.490Z,95833.38
2023-04-13T22:50:42.262Z,95834.25
2023-04-13T22:53:10.580Z,95821.81
2023-04-13T22:55:38.828Z,95823.63
2023-04-13T22:58:06.975Z,95817.66
2023-04-13T23:00:36.709Z,95814.19
2023-04-13T23:03:05.094Z,95816.47
2023-04-13T23:05:34.800Z,95809.06
2023-04-13T23:08:02.647Z,95804.75
2023-04-13T23:10:31.702Z,95800.97
2023-04-13T23:12:59.924Z,95803.09
2023-04-13T23:15:28.041Z,95811.81
2023-04-13T23:17:57.812Z,95818.00
2023-04-13T23:20:28.082Z,95818.84
2023-04-13T23:22:55.913Z,95832.06
2023-04-13T23:25:24.069Z,95821.56
2023-04-13T23:27:52.007Z,95824.31
2023-04-13T23:30:19.883Z,95835.03
2023-04-13T23:32:47.910Z,95824.78
2023-04-13T23:35:17.436Z,95821.28
2023-04-13T23:37:45.493Z,95820.47
2023-04-13T23:40:13.810Z,95827.50
2023-04-13T23:42:41.705Z,95824.78
2023-04-13T23:45:10.236Z,95824.78
2023-04-13T23:47:38.208Z,95824.78
2023-04-13T23:50:07.547Z,95819.75
2023-04-13T23:52:37.162Z,95816.19
2023-04-13T23:55:05.481Z,95804.84
2023-04-13T23:57:34.807Z,95802.44
